MV Sea Wolf — WCW6738 — position and weather

sailwx.info

Track history (hours):
 
Tides and Currents Weather Stations Pressure Air Temp Water Temp Dewpoint Dewpoint Depression Visibility Wind Speed Wind Dir Waves Ship Positions

MV Sea Wolf

Owner: SEA WOLF MARINE TOWING & TRANSPORTATION, Bayonne, NJ. More information available from US FCC via Universal Licensing System and Coast Guard Vessel Documentation Center.

Last reported at 2016-Jun-27 09:33 UTC. Time now 2016-Jun-27 09:39 UTC.
Position N 40°41' W 074°05'.

Length 66 m; draft 10 m.

MMSI: 367002350.

Date/timePositionNaut miles runAvg speedWind from/ knotsBaromVisibWave heightAir tempDewpointWater temp
2016-Jun-27 09:33N 40°41' W 074°05'0 0.0
2016-Jun-27 08:34N 40°41' W 074°05'0 0.0
2016-Jun-27 07:34N 40°41' W 074°05'0 0.0
2016-Jun-27 06:33N 40°41' W 074°05'0 0.0
2016-Jun-27 05:34N 40°41' W 074°05'0 0.0
2016-Jun-27 04:34N 40°41' W 074°05'0 0.0
2016-Jun-27 03:34N 40°41' W 074°05'0 0.0
2016-Jun-27 02:33N 40°41' W 074°05'0 0.0
2016-Jun-27 01:34N 40°41' W 074°05'0 0.0
2016-Jun-27 00:34N 40°41' W 074°05'0 0.0
2016-Jun-26 23:33N 40°41' W 074°05'0 0.0
2016-Jun-26 22:33N 40°41' W 074°05'0 0.0
2016-Jun-26 21:34N 40°41' W 074°05'0 0.0
2016-Jun-26 20:34N 40°41' W 074°05'0 0.0
2016-Jun-26 19:34N 40°41' W 074°05'0 0.0
2016-Jun-26 18:34N 40°41' W 074°05'0 0.0
2016-Jun-26 17:34N 40°41' W 074°05'0 0.0
2016-Jun-26 16:34N 40°41' W 074°05'0 0.0
2016-Jun-26 15:34N 40°41' W 074°05'0 0.0
2016-Jun-26 14:34N 40°41' W 074°05'0 0.0
2016-Jun-26 13:34N 40°41' W 074°05'0 0.0
2016-Jun-26 12:33N 40°41' W 074°05'0 0.0
2016-Jun-26 11:33N 40°41' W 074°05'0 0.0
2016-Jun-26 10:33N 40°41' W 074°05'0 0.0
2016-Jun-26 09:33N 40°41' W 074°05'0 0.0
2016-Jun-26 08:33N 40°41' W 074°05'0 0.0
2016-Jun-26 07:33N 40°41' W 074°05'0 0.0
2016-Jun-26 06:33N 40°41' W 074°05'0 0.0
2016-Jun-26 05:33N 40°41' W 074°05'0 0.0
2016-Jun-26 04:33N 40°41' W 074°05'0 0.0
2016-Jun-26 03:33N 40°41' W 074°05'0 0.0
2016-Jun-26 02:33N 40°41' W 074°05'0 0.0
2016-Jun-26 01:33N 40°41' W 074°05'0 0.0
2016-Jun-26 00:33N 40°41' W 074°05'0 0.0
2016-Jun-25 23:33N 40°41' W 074°05'0 0.0
2016-Jun-25 22:33N 40°41' W 074°05'0 0.0
2016-Jun-25 21:33N 40°41' W 074°05'0 0.0
2016-Jun-25 20:33N 40°41' W 074°05'0 0.0
2016-Jun-25 19:33N 40°41' W 074°05'0 0.0
2016-Jun-25 18:33N 40°41' W 074°05'0 0.0
2016-Jun-25 17:33N 40°41' W 074°05'0 0.0
2016-Jun-25 16:33N 40°41' W 074°05'0 0.0
2016-Jun-25 15:33N 40°41' W 074°05'0 0.0
2016-Jun-25 14:32N 40°41' W 074°05'0 0.0
2016-Jun-25 13:33N 40°41' W 074°05'0 0.0
2016-Jun-25 12:33N 40°41' W 074°05'0 0.0
2016-Jun-25 11:33N 40°41' W 074°05'0 0.0
2016-Jun-25 10:33N 40°41' W 074°05'0 0.0
2016-Jun-25 09:33N 40°41' W 074°05'0 0.0
2016-Jun-25 08:34N 40°41' W 074°05'0 0.0
2016-Jun-25 07:33N 40°41' W 074°05'0 0.0
2016-Jun-25 06:33N 40°41' W 074°05'0 0.0
2016-Jun-25 05:33N 40°41' W 074°05'0 0.0
2016-Jun-25 04:33N 40°41' W 074°05'0 0.0
2016-Jun-25 03:33N 40°41' W 074°05'0 0.0
2016-Jun-25 02:34N 40°41' W 074°05'0 0.0
2016-Jun-25 01:33N 40°41' W 074°05'0 0.0
2016-Jun-25 00:33N 40°41' W 074°05'0 0.0
2016-Jun-24 23:33N 40°41' W 074°05'0 0.0
2016-Jun-24 22:33N 40°41' W 074°05'0 0.0
2016-Jun-24 21:33N 40°41' W 074°05'0 0.2
2016-Jun-24 20:33N 40°41' W 074°04'4 4.3
2016-Jun-24 19:33N 40°39' W 074°09'0 0.2
2016-Jun-24 17:33N 40°39' W 074°09'4 4.0
2016-Jun-24 16:33N 40°41' W 074°04'3 2.6
2016-Jun-24 15:33N 40°40' W 074°01'3 2.7
2016-Jun-24 14:34N 40°41' W 074°05'0 0.0
2016-Jun-24 13:33N 40°41' W 074°05'0 0.0
2016-Jun-24 12:33N 40°41' W 074°05'0 0.0
2016-Jun-24 11:33N 40°41' W 074°05'0 0.0
2016-Jun-24 10:34N 40°41' W 074°05'0 0.0
2016-Jun-24 09:33N 40°41' W 074°05'0 0.0
2016-Jun-24 08:33N 40°41' W 074°05'0 0.0
2016-Jun-24 07:33N 40°41' W 074°05'0 0.0
2016-Jun-24 06:33N 40°41' W 074°05'0 0.0
2016-Jun-24 04:33N 40°41' W 074°05'0 0.0
2016-Jun-24 03:33N 40°41' W 074°05'0 0.0
2016-Jun-24 02:33N 40°41' W 074°05'0 0.0
2016-Jun-24 01:33N 40°41' W 074°05'3 3.5
2016-Jun-24 00:33N 40°39' W 074°08'1 0.5
2016-Jun-23 21:31N 40°39' W 074°10'3 2.9
2016-Jun-23 20:33N 40°39' W 074°06'2 2.4
2016-Jun-23 19:33N 40°41' W 074°05'0 0.0
2016-Jun-23 18:34N 40°41' W 074°05'0 0.0
2016-Jun-23 17:34N 40°41' W 074°05'0 0.0
2016-Jun-23 16:34N 40°41' W 074°05'0 0.0
2016-Jun-23 15:34N 40°41' W 074°05'0 0.0
2016-Jun-23 14:33N 40°41' W 074°05'8 8.0
2016-Jun-23 13:33N 40°34' W 073°60'5 4.9
2016-Jun-23 12:33N 40°36' W 073°54'0 0.0
2016-Jun-23 11:20N 40°36' W 073°54'2 2.3
2016-Jun-23 10:31N 40°35' W 073°53'8 8.0
2016-Jun-23 09:33N 40°36' W 074°03'5 5.0
2016-Jun-23 08:34N 40°41' W 074°05'0 0.0
2016-Jun-23 07:34N 40°41' W 074°05'2 0.8
2016-Jun-23 05:33N 40°40' W 074°03'3 2.8
2016-Jun-23 04:33N 40°37' W 074°03'4 3.5
2016-Jun-23 03:32N 40°34' W 074°02'5 0.3
2016-Jun-22 10:06N 40°29' W 073°60'0 0.0
2016-Jun-22 09:10N 40°29' W 073°60'2 0.0
2016-Jun-20 20:28N 40°29' W 074°02'0 0.0
2016-Jun-20 19:16N 40°29' W 074°02'0 0.0
2016-Jun-20 18:16N 40°29' W 074°02'1 0.3
2016-Jun-20 16:19N 40°29' W 074°03'1 0.2
2016-Jun-20 13:30N 40°29' W 074°02'0 0.0
2016-Jun-20 12:24N 40°29' W 074°02'2 0.1
2016-Jun-19 19:09N 40°30' W 074°03'4 6.7
2016-Jun-19 18:32N 40°35' W 074°02'6 6.1
2016-Jun-19 17:34N 40°40' W 074°04'1 0.9
2016-Jun-19 16:33N 40°41' W 074°05'0 0.0
2016-Jun-19 15:34N 40°41' W 074°05'0 0.0
2016-Jun-19 14:34N 40°41' W 074°05'0 0.0
2016-Jun-19 13:33N 40°41' W 074°05'0 0.0
2016-Jun-19 12:33N 40°41' W 074°05'0 0.0
2016-Jun-19 11:33N 40°41' W 074°05'0 0.0
2016-Jun-19 10:34N 40°41' W 074°05'0 0.0
2016-Jun-19 09:33N 40°41' W 074°05'0 0.0
2016-Jun-19 08:33N 40°41' W 074°05'0 0.0
2016-Jun-19 07:33N 40°41' W 074°05'0 0.0
2016-Jun-19 06:33N 40°41' W 074°05'0 0.0
2016-Jun-19 05:33N 40°41' W 074°05'0 0.0
2016-Jun-19 04:33N 40°41' W 074°05'0 0.0
2016-Jun-19 03:33N 40°41' W 074°05'0 0.0
2016-Jun-19 02:33N 40°41' W 074°05'0 0.0
2016-Jun-19 01:34N 40°41' W 074°05'0 0.0
2016-Jun-19 00:33N 40°41' W 074°05'0 0.0
2016-Jun-18 23:33N 40°41' W 074°05'0 0.0
2016-Jun-18 22:33N 40°41' W 074°05'0 0.0
2016-Jun-18 21:33N 40°41' W 074°05'0 0.0
2016-Jun-18 20:33N 40°41' W 074°05'3 0.8
2016-Jun-18 17:19N 40°39' W 074°07'3 3.5
2016-Jun-18 16:33N 40°41' W 074°04'6 6.3
2016-Jun-18 15:33N 40°44' W 073°57'2 2.3
2016-Jun-18 14:34N 40°42' W 073°59'4 4.5
2016-Jun-18 13:33N 40°41' W 074°05'0 0.0
2016-Jun-18 12:33N 40°41' W 074°05'0 0.0
2016-Jun-18 11:33N 40°41' W 074°05'0 0.0
2016-Jun-18 10:33N 40°41' W 074°05'0 0.0
2016-Jun-18 09:33N 40°41' W 074°05'0 0.0
2016-Jun-18 08:33N 40°41' W 074°05'0 0.0
2016-Jun-18 07:33N 40°41' W 074°05'0 0.0
2016-Jun-18 06:33N 40°41' W 074°05'0 0.0
2016-Jun-18 05:33N 40°41' W 074°05'0 0.0
2016-Jun-18 04:33N 40°41' W 074°05'0 0.0
2016-Jun-18 03:33N 40°41' W 074°05'0 0.0
2016-Jun-18 02:33N 40°41' W 074°05'0 0.0
2016-Jun-18 01:33N 40°41' W 074°05'0 0.0
2016-Jun-18 00:33N 40°41' W 074°05'0 0.0
2016-Jun-17 23:33N 40°41' W 074°05'0 0.0
2016-Jun-17 22:33N 40°41' W 074°05'0 0.0
2016-Jun-17 21:33N 40°41' W 074°05'2 2.1
2016-Jun-17 20:33N 40°42' W 074°02'0 0.4
2016-Jun-17 19:33N 40°41' W 074°02'2 2.0
2016-Jun-17 18:33N 40°41' W 074°05'0 0.0
2016-Jun-17 17:33N 40°41' W 074°05'0 0.0
2016-Jun-17 16:33N 40°41' W 074°05'0 0.0
2016-Jun-17 15:33N 40°41' W 074°05'0 0.0
2016-Jun-17 14:33N 40°41' W 074°05'5 4.8
2016-Jun-17 13:33N 40°37' W 074°03'8 6.9
2016-Jun-17 12:28N 40°36' W 073°53'1 1.2
2016-Jun-17 11:33N 40°36' W 073°54'0 0.0
2016-Jun-17 10:33N 40°36' W 073°54'  
Track history (hours):
 
Tides and Currents Weather Stations Pressure Air Temp Water Temp Dewpoint Dewpoint Depression Visibility Wind Speed Wind Dir Waves Ship Positions

MV Sea Wolf

Owner: SEA WOLF MARINE TOWING & TRANSPORTATION, Bayonne, NJ. More information available from US FCC via Universal Licensing System and Coast Guard Vessel Documentation Center.

Last reported at 2016-Jun-27 09:33 UTC. Time now 2016-Jun-27 09:39 UTC.
Position N 40°41' W 074°05'.

Length 66 m; draft 10 m.

MMSI: 367002350.

Date/timePositionNaut miles runAvg speedWind from/ knotsBaromVisibWave heightAir tempDewpointWater temp
2016-Jun-27 09:33N 40°41' W 074°05'0 0.0
2016-Jun-27 08:34N 40°41' W 074°05'0 0.0
2016-Jun-27 07:34N 40°41' W 074°05'0 0.0
2016-Jun-27 06:33N 40°41' W 074°05'0 0.0
2016-Jun-27 05:34N 40°41' W 074°05'0 0.0
2016-Jun-27 04:34N 40°41' W 074°05'0 0.0
2016-Jun-27 03:34N 40°41' W 074°05'0 0.0
2016-Jun-27 02:33N 40°41' W 074°05'0 0.0
2016-Jun-27 01:34N 40°41' W 074°05'0 0.0
2016-Jun-27 00:34N 40°41' W 074°05'0 0.0
2016-Jun-26 23:33N 40°41' W 074°05'0 0.0
2016-Jun-26 22:33N 40°41' W 074°05'0 0.0
2016-Jun-26 21:34N 40°41' W 074°05'0 0.0
2016-Jun-26 20:34N 40°41' W 074°05'0 0.0
2016-Jun-26 19:34N 40°41' W 074°05'0 0.0
2016-Jun-26 18:34N 40°41' W 074°05'0 0.0
2016-Jun-26 17:34N 40°41' W 074°05'0 0.0
2016-Jun-26 16:34N 40°41' W 074°05'0 0.0
2016-Jun-26 15:34N 40°41' W 074°05'0 0.0
2016-Jun-26 14:34N 40°41' W 074°05'0 0.0
2016-Jun-26 13:34N 40°41' W 074°05'0 0.0
2016-Jun-26 12:33N 40°41' W 074°05'0 0.0
2016-Jun-26 11:33N 40°41' W 074°05'0 0.0
2016-Jun-26 10:33N 40°41' W 074°05'0 0.0
2016-Jun-26 09:33N 40°41' W 074°05'0 0.0
2016-Jun-26 08:33N 40°41' W 074°05'0 0.0
2016-Jun-26 07:33N 40°41' W 074°05'0 0.0
2016-Jun-26 06:33N 40°41' W 074°05'0 0.0
2016-Jun-26 05:33N 40°41' W 074°05'0 0.0
2016-Jun-26 04:33N 40°41' W 074°05'0 0.0
2016-Jun-26 03:33N 40°41' W 074°05'0 0.0
2016-Jun-26 02:33N 40°41' W 074°05'0 0.0
2016-Jun-26 01:33N 40°41' W 074°05'0 0.0
2016-Jun-26 00:33N 40°41' W 074°05'0 0.0
2016-Jun-25 23:33N 40°41' W 074°05'0 0.0
2016-Jun-25 22:33N 40°41' W 074°05'0 0.0
2016-Jun-25 21:33N 40°41' W 074°05'0 0.0
2016-Jun-25 20:33N 40°41' W 074°05'0 0.0
2016-Jun-25 19:33N 40°41' W 074°05'0 0.0
2016-Jun-25 18:33N 40°41' W 074°05'0 0.0
2016-Jun-25 17:33N 40°41' W 074°05'0 0.0
2016-Jun-25 16:33N 40°41' W 074°05'0 0.0
2016-Jun-25 15:33N 40°41' W 074°05'0 0.0
2016-Jun-25 14:32N 40°41' W 074°05'0 0.0
2016-Jun-25 13:33N 40°41' W 074°05'0 0.0
2016-Jun-25 12:33N 40°41' W 074°05'0 0.0
2016-Jun-25 11:33N 40°41' W 074°05'0 0.0
2016-Jun-25 10:33N 40°41' W 074°05'0 0.0
2016-Jun-25 09:33N 40°41' W 074°05'0 0.0
2016-Jun-25 08:34N 40°41' W 074°05'0 0.0
2016-Jun-25 07:33N 40°41' W 074°05'0 0.0
2016-Jun-25 06:33N 40°41' W 074°05'0 0.0
2016-Jun-25 05:33N 40°41' W 074°05'0 0.0
2016-Jun-25 04:33N 40°41' W 074°05'0 0.0
2016-Jun-25 03:33N 40°41' W 074°05'0 0.0
2016-Jun-25 02:34N 40°41' W 074°05'0 0.0
2016-Jun-25 01:33N 40°41' W 074°05'0 0.0
2016-Jun-25 00:33N 40°41' W 074°05'0 0.0
2016-Jun-24 23:33N 40°41' W 074°05'0 0.0
2016-Jun-24 22:33N 40°41' W 074°05'0 0.0
2016-Jun-24 21:33N 40°41' W 074°05'0 0.2
2016-Jun-24 20:33N 40°41' W 074°04'4 4.3
2016-Jun-24 19:33N 40°39' W 074°09'0 0.2
2016-Jun-24 17:33N 40°39' W 074°09'4 4.0
2016-Jun-24 16:33N 40°41' W 074°04'3 2.6
2016-Jun-24 15:33N 40°40' W 074°01'3 2.7
2016-Jun-24 14:34N 40°41' W 074°05'0 0.0
2016-Jun-24 13:33N 40°41' W 074°05'0 0.0
2016-Jun-24 12:33N 40°41' W 074°05'0 0.0
2016-Jun-24 11:33N 40°41' W 074°05'0 0.0
2016-Jun-24 10:34N 40°41' W 074°05'0 0.0
2016-Jun-24 09:33N 40°41' W 074°05'0 0.0
2016-Jun-24 08:33N 40°41' W 074°05'0 0.0
2016-Jun-24 07:33N 40°41' W 074°05'0 0.0
2016-Jun-24 06:33N 40°41' W 074°05'0 0.0
2016-Jun-24 04:33N 40°41' W 074°05'0 0.0
2016-Jun-24 03:33N 40°41' W 074°05'0 0.0
2016-Jun-24 02:33N 40°41' W 074°05'0 0.0
2016-Jun-24 01:33N 40°41' W 074°05'3 3.5
2016-Jun-24 00:33N 40°39' W 074°08'1 0.5
2016-Jun-23 21:31N 40°39' W 074°10'3 2.9
2016-Jun-23 20:33N 40°39' W 074°06'2 2.4
2016-Jun-23 19:33N 40°41' W 074°05'0 0.0
2016-Jun-23 18:34N 40°41' W 074°05'0 0.0
2016-Jun-23 17:34N 40°41' W 074°05'0 0.0
2016-Jun-23 16:34N 40°41' W 074°05'0 0.0
2016-Jun-23 15:34N 40°41' W 074°05'0 0.0
2016-Jun-23 14:33N 40°41' W 074°05'8 8.0
2016-Jun-23 13:33N 40°34' W 073°60'5 4.9
2016-Jun-23 12:33N 40°36' W 073°54'0 0.0
2016-Jun-23 11:20N 40°36' W 073°54'2 2.3
2016-Jun-23 10:31N 40°35' W 073°53'8 8.0
2016-Jun-23 09:33N 40°36' W 074°03'5 5.0
2016-Jun-23 08:34N 40°41' W 074°05'0 0.0
2016-Jun-23 07:34N 40°41' W 074°05'2 0.8
2016-Jun-23 05:33N 40°40' W 074°03'3 2.8
2016-Jun-23 04:33N 40°37' W 074°03'4 3.5
2016-Jun-23 03:32N 40°34' W 074°02'5 0.3
2016-Jun-22 10:06N 40°29' W 073°60'0 0.0
2016-Jun-22 09:10N 40°29' W 073°60'2 0.0
2016-Jun-20 20:28N 40°29' W 074°02'0 0.0
2016-Jun-20 19:16N 40°29' W 074°02'0 0.0
2016-Jun-20 18:16N 40°29' W 074°02'1 0.3
2016-Jun-20 16:19N 40°29' W 074°03'1 0.2
2016-Jun-20 13:30N 40°29' W 074°02'0 0.0
2016-Jun-20 12:24N 40°29' W 074°02'2 0.1
2016-Jun-19 19:09N 40°30' W 074°03'4 6.7
2016-Jun-19 18:32N 40°35' W 074°02'6 6.1
2016-Jun-19 17:34N 40°40' W 074°04'1 0.9
2016-Jun-19 16:33N 40°41' W 074°05'0 0.0
2016-Jun-19 15:34N 40°41' W 074°05'0 0.0
2016-Jun-19 14:34N 40°41' W 074°05'0 0.0
2016-Jun-19 13:33N 40°41' W 074°05'0 0.0
2016-Jun-19 12:33N 40°41' W 074°05'0 0.0
2016-Jun-19 11:33N 40°41' W 074°05'0 0.0
2016-Jun-19 10:34N 40°41' W 074°05'0 0.0
2016-Jun-19 09:33N 40°41' W 074°05'0 0.0
2016-Jun-19 08:33N 40°41' W 074°05'0 0.0
2016-Jun-19 07:33N 40°41' W 074°05'0 0.0
2016-Jun-19 06:33N 40°41' W 074°05'0 0.0
2016-Jun-19 05:33N 40°41' W 074°05'0 0.0
2016-Jun-19 04:33N 40°41' W 074°05'0 0.0
2016-Jun-19 03:33N 40°41' W 074°05'0 0.0
2016-Jun-19 02:33N 40°41' W 074°05'0 0.0
2016-Jun-19 01:34N 40°41' W 074°05'0 0.0
2016-Jun-19 00:33N 40°41' W 074°05'0 0.0
2016-Jun-18 23:33N 40°41' W 074°05'0 0.0
2016-Jun-18 22:33N 40°41' W 074°05'0 0.0
2016-Jun-18 21:33N 40°41' W 074°05'0 0.0
2016-Jun-18 20:33N 40°41' W 074°05'3 0.8
2016-Jun-18 17:19N 40°39' W 074°07'3 3.5
2016-Jun-18 16:33N 40°41' W 074°04'6 6.3
2016-Jun-18 15:33N 40°44' W 073°57'2 2.3
2016-Jun-18 14:34N 40°42' W 073°59'4 4.5
2016-Jun-18 13:33N 40°41' W 074°05'0 0.0
2016-Jun-18 12:33N 40°41' W 074°05'0 0.0
2016-Jun-18 11:33N 40°41' W 074°05'0 0.0
2016-Jun-18 10:33N 40°41' W 074°05'0 0.0
2016-Jun-18 09:33N 40°41' W 074°05'0 0.0
2016-Jun-18 08:33N 40°41' W 074°05'0 0.0
2016-Jun-18 07:33N 40°41' W 074°05'0 0.0
2016-Jun-18 06:33N 40°41' W 074°05'0 0.0
2016-Jun-18 05:33N 40°41' W 074°05'0 0.0
2016-Jun-18 04:33N 40°41' W 074°05'0 0.0
2016-Jun-18 03:33N 40°41' W 074°05'0 0.0
2016-Jun-18 02:33N 40°41' W 074°05'0 0.0
2016-Jun-18 01:33N 40°41' W 074°05'0 0.0
2016-Jun-18 00:33N 40°41' W 074°05'0 0.0
2016-Jun-17 23:33N 40°41' W 074°05'0 0.0
2016-Jun-17 22:33N 40°41' W 074°05'0 0.0
2016-Jun-17 21:33N 40°41' W 074°05'2 2.1
2016-Jun-17 20:33N 40°42' W 074°02'0 0.4
2016-Jun-17 19:33N 40°41' W 074°02'2 2.0
2016-Jun-17 18:33N 40°41' W 074°05'0 0.0
2016-Jun-17 17:33N 40°41' W 074°05'0 0.0
2016-Jun-17 16:33N 40°41' W 074°05'0 0.0
2016-Jun-17 15:33N 40°41' W 074°05'0 0.0
2016-Jun-17 14:33N 40°41' W 074°05'5 4.8
2016-Jun-17 13:33N 40°37' W 074°03'8 6.9
2016-Jun-17 12:28N 40°36' W 073°53'1 1.2
2016-Jun-17 11:33N 40°36' W 073°54'0 0.0
2016-Jun-17 10:33N 40°36' W 073°54'  

Dump ship's entire track history